sim
Sign-in with your pilot id or email,
or register
Callsign
Passwort

Schedule Details

Flight Number: DLH96
Departure: Frankfurt Airport (EDDF) at 07:15
Arrival: Munich Airport (EDDM) at 08:10
Route: Lufthansa Passenger Schedule. Enter filed route here before submitting Pirep.

Weather Information
Getting current METAR information for EDDF 231350Z 22014KT 190V260 CAVOK 24/10 Q1007 NOSIG
Getting current METAR information for EDDM 231350Z 20004KT 9999 FEW015 FEW020TCU SCT043 18/16 Q1009 NOSIG

Schedule Frequency

Route Map